sensor_id;sensor_type;location;lat;lon;timestamp;P1;durP1;ratioP1;P2;durP2;ratioP2
23236;SDS011;11787;52.018;8.570;2023-09-19T00:00:19;5.22;;;2.70;;
23236;SDS011;11787;52.018;8.570;2023-09-19T00:02:57;5.00;;;2.63;;
23236;SDS011;11787;52.018;8.570;2023-09-19T00:05:26;4.80;;;2.80;;
23236;SDS011;11787;52.018;8.570;2023-09-19T00:07:54;5.35;;;2.67;;
23236;SDS011;11787;52.018;8.570;2023-09-19T00:10:23;4.10;;;2.90;;
23236;SDS011;11787;52.018;8.570;2023-09-19T00:12:50;6.25;;;3.00;;
23236;SDS011;11787;52.018;8.570;2023-09-19T00:15:20;4.72;;;2.80;;
23236;SDS011;11787;52.018;8.570;2023-09-19T00:17:48;4.80;;;2.97;;
23236;SDS011;11787;52.018;8.570;2023-09-19T00:20:17;5.82;;;2.95;;
23236;SDS011;11787;52.018;8.570;2023-09-19T00:22:43;5.05;;;3.42;;
23236;SDS011;11787;52.018;8.570;2023-09-19T00:25:09;7.80;;;2.90;;
23236;SDS011;11787;52.018;8.570;2023-09-19T00:27:37;4.80;;;3.17;;
23236;SDS011;11787;52.018;8.570;2023-09-19T00:30:10;9.45;;;3.03;;
23236;SDS011;11787;52.018;8.570;2023-09-19T00:32:39;7.03;;;2.97;;
23236;SDS011;11787;52.018;8.570;2023-09-19T00:35:05;5.38;;;2.78;;
23236;SDS011;11787;52.018;8.570;2023-09-19T00:37:32;5.72;;;2.90;;
23236;SDS011;11787;52.018;8.570;2023-09-19T00:39:59;10.43;;;3.42;;
23236;SDS011;11787;52.018;8.570;2023-09-19T00:42:24;7.22;;;2.92;;
23236;SDS011;11787;52.018;8.570;2023-09-19T00:44:50;5.40;;;2.58;;
23236;SDS011;11787;52.018;8.570;2023-09-19T00:47:17;5.57;;;2.65;;
23236;SDS011;11787;52.018;8.570;2023-09-19T00:49:44;5.82;;;2.60;;
23236;SDS011;11787;52.018;8.570;2023-09-19T00:52:15;4.38;;;2.35;;
23236;SDS011;11787;52.018;8.570;2023-09-19T00:54:44;7.82;;;2.90;;
23236;SDS011;11787;52.018;8.570;2023-09-19T00:57:11;7.13;;;2.90;;
23236;SDS011;11787;52.018;8.570;2023-09-19T00:59:37;8.13;;;2.50;;
23236;SDS011;11787;52.018;8.570;2023-09-19T01:02:02;5.22;;;3.10;;
23236;SDS011;11787;52.018;8.570;2023-09-19T01:04:28;6.40;;;3.17;;
23236;SDS011;11787;52.018;8.570;2023-09-19T01:06:54;5.88;;;2.90;;
23236;SDS011;11787;52.018;8.570;2023-09-19T01:09:20;7.72;;;2.97;;
23236;SDS011;11787;52.018;8.570;2023-09-19T01:11:47;5.43;;;3.22;;
23236;SDS011;11787;52.018;8.570;2023-09-19T01:17:34;6.95;;;3.58;;
23236;SDS011;11787;52.018;8.570;2023-09-19T01:30:24;8.10;;;3.53;;
23236;SDS011;11787;52.018;8.570;2023-09-19T01:32:52;9.32;;;4.22;;
23236;SDS011;11787;52.018;8.570;2023-09-19T01:35:19;6.47;;;4.00;;
23236;SDS011;11787;52.018;8.570;2023-09-19T01:37:44;7.85;;;4.25;;
23236;SDS011;11787;52.018;8.570;2023-09-19T01:40:14;9.18;;;4.15;;
23236;SDS011;11787;52.018;8.570;2023-09-19T01:51:07;7.18;;;4.43;;
23236;SDS011;11787;52.018;8.570;2023-09-19T01:53:50;8.90;;;4.57;;
23236;SDS011;11787;52.018;8.570;2023-09-19T01:56:31;8.45;;;4.30;;
23236;SDS011;11787;52.018;8.570;2023-09-19T01:59:06;7.25;;;4.47;;
23236;SDS011;11787;52.018;8.570;2023-09-19T02:01:35;10.07;;;4.38;;
23236;SDS011;11787;52.018;8.570;2023-09-19T02:04:03;8.50;;;4.22;;
23236;SDS011;11787;52.018;8.570;2023-09-19T02:06:29;9.23;;;4.50;;
23236;SDS011;11787;52.018;8.570;2023-09-19T02:08:54;6.40;;;4.40;;
23236;SDS011;11787;52.018;8.570;2023-09-19T02:11:20;6.78;;;3.95;;
23236;SDS011;11787;52.018;8.570;2023-09-19T02:13:46;6.82;;;4.35;;
23236;SDS011;11787;52.018;8.570;2023-09-19T02:16:12;7.40;;;3.80;;
23236;SDS011;11787;52.018;8.570;2023-09-19T02:18:37;9.05;;;3.60;;
23236;SDS011;11787;52.018;8.570;2023-09-19T02:21:04;7.65;;;3.40;;
23236;SDS011;11787;52.018;8.570;2023-09-19T02:23:31;8.80;;;3.60;;
23236;SDS011;11787;52.018;8.570;2023-09-19T02:25:58;8.77;;;3.05;;
23236;SDS011;11787;52.018;8.570;2023-09-19T02:28:25;8.77;;;3.35;;
23236;SDS011;11787;52.018;8.570;2023-09-19T02:30:55;10.40;;;3.15;;
23236;SDS011;11787;52.018;8.570;2023-09-19T02:33:21;8.73;;;3.13;;
23236;SDS011;11787;52.018;8.570;2023-09-19T02:35:47;8.10;;;3.10;;
23236;SDS011;11787;52.018;8.570;2023-09-19T02:38:12;9.02;;;3.17;;
23236;SDS011;11787;52.018;8.570;2023-09-19T02:40:39;8.50;;;3.20;;
23236;SDS011;11787;52.018;8.570;2023-09-19T02:43:05;9.13;;;3.33;;
23236;SDS011;11787;52.018;8.570;2023-09-19T02:45:33;11.43;;;3.20;;
23236;SDS011;11787;52.018;8.570;2023-09-19T02:47:59;10.60;;;2.92;;
23236;SDS011;11787;52.018;8.570;2023-09-19T02:50:25;9.05;;;2.88;;
23236;SDS011;11787;52.018;8.570;2023-09-19T02:52:51;11.88;;;3.00;;
23236;SDS011;11787;52.018;8.570;2023-09-19T02:55:17;10.38;;;2.60;;
23236;SDS011;11787;52.018;8.570;2023-09-19T02:57:51;9.68;;;3.03;;
23236;SDS011;11787;52.018;8.570;2023-09-19T03:00:19;6.93;;;2.60;;
23236;SDS011;11787;52.018;8.570;2023-09-19T03:02:47;11.07;;;2.95;;
23236;SDS011;11787;52.018;8.570;2023-09-19T03:05:18;10.43;;;3.13;;
23236;SDS011;11787;52.018;8.570;2023-09-19T03:07:44;8.63;;;3.05;;
23236;SDS011;11787;52.018;8.570;2023-09-19T03:10:12;8.45;;;2.92;;
23236;SDS011;11787;52.018;8.570;2023-09-19T03:12:40;10.00;;;2.60;;
23236;SDS011;11787;52.018;8.570;2023-09-19T03:15:05;9.25;;;2.95;;
23236;SDS011;11787;52.018;8.570;2023-09-19T03:17:33;10.25;;;3.42;;
23236;SDS011;11787;52.018;8.570;2023-09-19T03:19:59;8.23;;;2.50;;
23236;SDS011;11787;52.018;8.570;2023-09-19T03:22:26;7.82;;;2.70;;
23236;SDS011;11787;52.018;8.570;2023-09-19T03:24:52;10.60;;;3.55;;
23236;SDS011;11787;52.018;8.570;2023-09-19T03:27:18;13.13;;;3.17;;
23236;SDS011;11787;52.018;8.570;2023-09-19T03:29:43;13.82;;;3.25;;
23236;SDS011;11787;52.018;8.570;2023-09-19T03:32:09;10.45;;;2.88;;
23236;SDS011;11787;52.018;8.570;2023-09-19T03:34:36;9.75;;;3.15;;
23236;SDS011;11787;52.018;8.570;2023-09-19T03:37:05;9.05;;;3.05;;
23236;SDS011;11787;52.018;8.570;2023-09-19T03:39:31;7.20;;;2.92;;
23236;SDS011;11787;52.018;8.570;2023-09-19T03:41:57;9.90;;;2.83;;
23236;SDS011;11787;52.018;8.570;2023-09-19T03:44:23;9.70;;;2.78;;
23236;SDS011;11787;52.018;8.570;2023-09-19T03:46:48;10.88;;;3.22;;
23236;SDS011;11787;52.018;8.570;2023-09-19T03:49:14;11.15;;;3.10;;
23236;SDS011;11787;52.018;8.570;2023-09-19T03:51:40;10.00;;;2.88;;
23236;SDS011;11787;52.018;8.570;2023-09-19T03:54:06;14.30;;;3.92;;
23236;SDS011;11787;52.018;8.570;2023-09-19T03:56:32;8.98;;;2.60;;
23236;SDS011;11787;52.018;8.570;2023-09-19T03:58:58;8.82;;;2.58;;
23236;SDS011;11787;52.018;8.570;2023-09-19T04:01:24;10.88;;;2.80;;
23236;SDS011;11787;52.018;8.570;2023-09-19T04:03:52;11.52;;;3.15;;
23236;SDS011;11787;52.018;8.570;2023-09-19T04:06:18;11.05;;;2.97;;
23236;SDS011;11787;52.018;8.570;2023-09-19T04:08:44;9.85;;;3.00;;
23236;SDS011;11787;52.018;8.570;2023-09-19T04:11:10;6.07;;;2.25;;
23236;SDS011;11787;52.018;8.570;2023-09-19T04:13:36;11.27;;;3.05;;
23236;SDS011;11787;52.018;8.570;2023-09-19T04:16:02;9.02;;;2.47;;
23236;SDS011;11787;52.018;8.570;2023-09-19T04:18:32;12.27;;;2.78;;
23236;SDS011;11787;52.018;8.570;2023-09-19T04:20:59;12.50;;;3.00;;
23236;SDS011;11787;52.018;8.570;2023-09-19T04:23:27;11.25;;;2.80;;
23236;SDS011;11787;52.018;8.570;2023-09-19T04:25:53;11.75;;;2.55;;
23236;SDS011;11787;52.018;8.570;2023-09-19T04:28:19;10.80;;;2.25;;
23236;SDS011;11787;52.018;8.570;2023-09-19T04:30:44;14.40;;;2.60;;
23236;SDS011;11787;52.018;8.570;2023-09-19T04:33:10;9.25;;;2.70;;
23236;SDS011;11787;52.018;8.570;2023-09-19T04:35:39;10.50;;;2.58;;
23236;SDS011;11787;52.018;8.570;2023-09-19T04:38:07;9.13;;;2.38;;
23236;SDS011;11787;52.018;8.570;2023-09-19T04:40:33;13.15;;;3.72;;
23236;SDS011;11787;52.018;8.570;2023-09-19T04:42:59;7.95;;;2.28;;
23236;SDS011;11787;52.018;8.570;2023-09-19T04:45:28;12.25;;;3.58;;
23236;SDS011;11787;52.018;8.570;2023-09-19T04:47:54;9.88;;;2.95;;
23236;SDS011;11787;52.018;8.570;2023-09-19T04:50:21;10.02;;;2.40;;
23236;SDS011;11787;52.018;8.570;2023-09-19T04:52:51;9.65;;;2.70;;
23236;SDS011;11787;52.018;8.570;2023-09-19T04:55:17;10.77;;;2.55;;
23236;SDS011;11787;52.018;8.570;2023-09-19T04:57:44;10.95;;;2.35;;
23236;SDS011;11787;52.018;8.570;2023-09-19T05:00:14;9.00;;;2.75;;
23236;SDS011;11787;52.018;8.570;2023-09-19T05:02:44;8.52;;;3.15;;
23236;SDS011;11787;52.018;8.570;2023-09-19T05:05:10;11.18;;;2.83;;
23236;SDS011;11787;52.018;8.570;2023-09-19T05:07:36;12.25;;;2.78;;
23236;SDS011;11787;52.018;8.570;2023-09-19T05:10:03;7.45;;;2.40;;
23236;SDS011;11787;52.018;8.570;2023-09-19T05:12:35;10.32;;;2.90;;
23236;SDS011;11787;52.018;8.570;2023-09-19T05:15:01;12.95;;;2.85;;
23236;SDS011;11787;52.018;8.570;2023-09-19T05:17:28;9.77;;;3.00;;
23236;SDS011;11787;52.018;8.570;2023-09-19T05:19:53;12.98;;;3.05;;
23236;SDS011;11787;52.018;8.570;2023-09-19T05:22:19;10.30;;;2.72;;
23236;SDS011;11787;52.018;8.570;2023-09-19T05:24:45;13.05;;;2.50;;
23236;SDS011;11787;52.018;8.570;2023-09-19T05:27:14;11.13;;;2.88;;
23236;SDS011;11787;52.018;8.570;2023-09-19T05:29:42;13.48;;;3.10;;
23236;SDS011;11787;52.018;8.570;2023-09-19T05:32:08;9.30;;;2.80;;
23236;SDS011;11787;52.018;8.570;2023-09-19T05:34:35;7.93;;;2.35;;
23236;SDS011;11787;52.018;8.570;2023-09-19T05:37:00;8.00;;;2.38;;
23236;SDS011;11787;52.018;8.570;2023-09-19T05:39:26;8.88;;;2.85;;
23236;SDS011;11787;52.018;8.570;2023-09-19T05:41:51;11.75;;;3.15;;
23236;SDS011;11787;52.018;8.570;2023-09-19T05:44:17;11.02;;;2.50;;
23236;SDS011;11787;52.018;8.570;2023-09-19T05:46:42;7.88;;;2.40;;
23236;SDS011;11787;52.018;8.570;2023-09-19T05:49:08;10.73;;;2.22;;
23236;SDS011;11787;52.018;8.570;2023-09-19T05:51:34;11.32;;;3.03;;
23236;SDS011;11787;52.018;8.570;2023-09-19T05:54:00;10.07;;;2.35;;
23236;SDS011;11787;52.018;8.570;2023-09-19T05:56:27;11.25;;;2.85;;
23236;SDS011;11787;52.018;8.570;2023-09-19T05:58:52;11.82;;;2.53;;
23236;SDS011;11787;52.018;8.570;2023-09-19T06:01:18;10.48;;;3.30;;
23236;SDS011;11787;52.018;8.570;2023-09-19T06:03:44;7.75;;;2.50;;
23236;SDS011;11787;52.018;8.570;2023-09-19T06:06:09;7.35;;;2.42;;
23236;SDS011;11787;52.018;8.570;2023-09-19T06:08:35;9.05;;;2.17;;
23236;SDS011;11787;52.018;8.570;2023-09-19T06:11:00;10.90;;;3.30;;
23236;SDS011;11787;52.018;8.570;2023-09-19T06:13:29;12.07;;;2.50;;
23236;SDS011;11787;52.018;8.570;2023-09-19T06:15:55;15.13;;;3.10;;
23236;SDS011;11787;52.018;8.570;2023-09-19T06:18:24;6.70;;;2.55;;
23236;SDS011;11787;52.018;8.570;2023-09-19T06:20:51;11.10;;;3.28;;
23236;SDS011;11787;52.018;8.570;2023-09-19T06:23:17;10.93;;;2.80;;
23236;SDS011;11787;52.018;8.570;2023-09-19T06:25:44;10.65;;;2.97;;
23236;SDS011;11787;52.018;8.570;2023-09-19T06:28:10;7.53;;;2.30;;
23236;SDS011;11787;52.018;8.570;2023-09-19T06:30:39;10.07;;;2.25;;
23236;SDS011;11787;52.018;8.570;2023-09-19T06:33:05;9.15;;;2.33;;
23236;SDS011;11787;52.018;8.570;2023-09-19T06:35:32;8.35;;;2.60;;
23236;SDS011;11787;52.018;8.570;2023-09-19T06:37:58;13.40;;;2.85;;
23236;SDS011;11787;52.018;8.570;2023-09-19T06:40:28;10.77;;;2.65;;
23236;SDS011;11787;52.018;8.570;2023-09-19T06:42:56;9.30;;;3.22;;
23236;SDS011;11787;52.018;8.570;2023-09-19T06:45:22;11.18;;;2.58;;
23236;SDS011;11787;52.018;8.570;2023-09-19T06:47:51;10.27;;;2.85;;
23236;SDS011;11787;52.018;8.570;2023-09-19T06:50:22;11.20;;;2.50;;
23236;SDS011;11787;52.018;8.570;2023-09-19T06:52:51;9.25;;;2.30;;
23236;SDS011;11787;52.018;8.570;2023-09-19T06:55:22;5.55;;;2.10;;
23236;SDS011;11787;52.018;8.570;2023-09-19T06:57:52;10.52;;;2.10;;
23236;SDS011;11787;52.018;8.570;2023-09-19T07:00:21;9.13;;;2.65;;
23236;SDS011;11787;52.018;8.570;2023-09-19T07:03:03;6.97;;;2.28;;
23236;SDS011;11787;52.018;8.570;2023-09-19T07:05:33;10.38;;;2.33;;
23236;SDS011;11787;52.018;8.570;2023-09-19T07:08:02;6.88;;;2.40;;
23236;SDS011;11787;52.018;8.570;2023-09-19T07:10:29;8.18;;;2.20;;
23236;SDS011;11787;52.018;8.570;2023-09-19T07:13:01;10.23;;;2.45;;
23236;SDS011;11787;52.018;8.570;2023-09-19T07:15:34;8.70;;;2.35;;
23236;SDS011;11787;52.018;8.570;2023-09-19T07:18:15;9.30;;;2.20;;
23236;SDS011;11787;52.018;8.570;2023-09-19T07:20:44;9.70;;;2.90;;
23236;SDS011;11787;52.018;8.570;2023-09-19T07:23:20;12.00;;;3.05;;
23236;SDS011;11787;52.018;8.570;2023-09-19T07:25:48;10.40;;;3.15;;
23236;SDS011;11787;52.018;8.570;2023-09-19T07:28:14;11.93;;;2.90;;
23236;SDS011;11787;52.018;8.570;2023-09-19T07:30:40;9.45;;;2.65;;
23236;SDS011;11787;52.018;8.570;2023-09-19T07:33:06;10.55;;;2.50;;
23236;SDS011;11787;52.018;8.570;2023-09-19T07:35:32;12.20;;;3.05;;
23236;SDS011;11787;52.018;8.570;2023-09-19T07:37:58;6.95;;;2.13;;
23236;SDS011;11787;52.018;8.570;2023-09-19T07:40:26;8.88;;;2.30;;
23236;SDS011;11787;52.018;8.570;2023-09-19T07:42:53;9.98;;;2.35;;
23236;SDS011;11787;52.018;8.570;2023-09-19T07:45:20;9.80;;;2.28;;
23236;SDS011;11787;52.018;8.570;2023-09-19T07:47:46;10.50;;;2.75;;
23236;SDS011;11787;52.018;8.570;2023-09-19T07:50:13;8.63;;;2.30;;
23236;SDS011;11787;52.018;8.570;2023-09-19T07:52:43;11.52;;;2.72;;
23236;SDS011;11787;52.018;8.570;2023-09-19T07:55:10;16.95;;;2.90;;
23236;SDS011;11787;52.018;8.570;2023-09-19T07:57:36;18.95;;;3.20;;
23236;SDS011;11787;52.018;8.570;2023-09-19T08:00:02;8.60;;;2.33;;
23236;SDS011;11787;52.018;8.570;2023-09-19T08:02:35;9.75;;;2.40;;
23236;SDS011;11787;52.018;8.570;2023-09-19T08:05:03;8.40;;;2.45;;
23236;SDS011;11787;52.018;8.570;2023-09-19T08:07:32;11.18;;;2.22;;
23236;SDS011;11787;52.018;8.570;2023-09-19T08:09:57;12.75;;;2.70;;
23236;SDS011;11787;52.018;8.570;2023-09-19T08:12:23;10.50;;;2.22;;
23236;SDS011;11787;52.018;8.570;2023-09-19T08:14:49;5.15;;;2.25;;
23236;SDS011;11787;52.018;8.570;2023-09-19T08:17:15;11.52;;;2.53;;
23236;SDS011;11787;52.018;8.570;2023-09-19T08:19:41;7.05;;;2.28;;
23236;SDS011;11787;52.018;8.570;2023-09-19T08:22:09;9.48;;;2.10;;
23236;SDS011;11787;52.018;8.570;2023-09-19T08:24:36;7.45;;;2.30;;
23236;SDS011;11787;52.018;8.570;2023-09-19T08:27:02;9.02;;;2.20;;
23236;SDS011;11787;52.018;8.570;2023-09-19T08:29:29;6.57;;;2.40;;
23236;SDS011;11787;52.018;8.570;2023-09-19T08:31:56;7.95;;;2.60;;
23236;SDS011;11787;52.018;8.570;2023-09-19T08:34:22;8.35;;;2.35;;
23236;SDS011;11787;52.018;8.570;2023-09-19T08:36:50;9.63;;;2.38;;
23236;SDS011;11787;52.018;8.570;2023-09-19T08:39:17;10.18;;;2.50;;
23236;SDS011;11787;52.018;8.570;2023-09-19T08:41:44;11.32;;;2.33;;
23236;SDS011;11787;52.018;8.570;2023-09-19T08:44:09;8.48;;;2.50;;
23236;SDS011;11787;52.018;8.570;2023-09-19T08:46:35;9.95;;;2.60;;
23236;SDS011;11787;52.018;8.570;2023-09-19T08:49:03;6.40;;;2.03;;
23236;SDS011;11787;52.018;8.570;2023-09-19T08:51:33;7.90;;;2.55;;
23236;SDS011;11787;52.018;8.570;2023-09-19T08:54:12;11.38;;;2.80;;
23236;SDS011;11787;52.018;8.570;2023-09-19T08:56:51;8.68;;;2.08;;
23236;SDS011;11787;52.018;8.570;2023-09-19T08:59:21;9.93;;;2.20;;
23236;SDS011;11787;52.018;8.570;2023-09-19T09:01:49;10.48;;;2.50;;
23236;SDS011;11787;52.018;8.570;2023-09-19T09:04:18;11.70;;;2.45;;
23236;SDS011;11787;52.018;8.570;2023-09-19T09:06:45;8.68;;;2.30;;
23236;SDS011;11787;52.018;8.570;2023-09-19T09:09:14;8.05;;;2.47;;
23236;SDS011;11787;52.018;8.570;2023-09-19T09:11:40;10.52;;;2.58;;
23236;SDS011;11787;52.018;8.570;2023-09-19T09:14:06;10.85;;;2.22;;
23236;SDS011;11787;52.018;8.570;2023-09-19T09:16:36;9.52;;;2.88;;
23236;SDS011;11787;52.018;8.570;2023-09-19T09:19:01;10.07;;;2.13;;
23236;SDS011;11787;52.018;8.570;2023-09-19T09:21:27;8.48;;;2.75;;
23236;SDS011;11787;52.018;8.570;2023-09-19T09:23:53;11.93;;;2.90;;
23236;SDS011;11787;52.018;8.570;2023-09-19T09:29:04;9.93;;;2.83;;
23236;SDS011;11787;52.018;8.570;2023-09-19T09:31:29;9.50;;;2.63;;
23236;SDS011;11787;52.018;8.570;2023-09-19T09:33:55;11.43;;;2.92;;
23236;SDS011;11787;52.018;8.570;2023-09-19T09:39:29;10.20;;;2.45;;
23236;SDS011;11787;52.018;8.570;2023-09-19T09:41:56;11.27;;;2.72;;
23236;SDS011;11787;52.018;8.570;2023-09-19T09:44:24;10.18;;;2.58;;
23236;SDS011;11787;52.018;8.570;2023-09-19T09:46:49;14.27;;;2.47;;
23236;SDS011;11787;52.018;8.570;2023-09-19T09:49:24;8.00;;;2.30;;
23236;SDS011;11787;52.018;8.570;2023-09-19T09:52:07;10.77;;;2.47;;
23236;SDS011;11787;52.018;8.570;2023-09-19T09:54:41;9.98;;;2.85;;
23236;SDS011;11787;52.018;8.570;2023-09-19T09:57:31;11.27;;;2.38;;
23236;SDS011;11787;52.018;8.570;2023-09-19T09:59:59;10.07;;;2.53;;
23236;SDS011;11787;52.018;8.570;2023-09-19T10:02:44;9.23;;;2.30;;
23236;SDS011;11787;52.018;8.570;2023-09-19T10:05:12;9.50;;;2.65;;
23236;SDS011;11787;52.018;8.570;2023-09-19T10:07:44;7.32;;;2.30;;
23236;SDS011;11787;52.018;8.570;2023-09-19T10:13:08;7.05;;;2.47;;
23236;SDS011;11787;52.018;8.570;2023-09-19T10:15:50;8.52;;;2.80;;
23236;SDS011;11787;52.018;8.570;2023-09-19T10:18:19;7.22;;;2.20;;
23236;SDS011;11787;52.018;8.570;2023-09-19T10:20:47;11.00;;;3.00;;
23236;SDS011;11787;52.018;8.570;2023-09-19T10:23:14;9.45;;;2.53;;
23236;SDS011;11787;52.018;8.570;2023-09-19T10:25:47;10.48;;;2.42;;
23236;SDS011;11787;52.018;8.570;2023-09-19T10:28:14;10.02;;;2.42;;
23236;SDS011;11787;52.018;8.570;2023-09-19T10:33:12;8.40;;;2.35;;
23236;SDS011;11787;52.018;8.570;2023-09-19T10:35:40;6.95;;;1.95;;
23236;SDS011;11787;52.018;8.570;2023-09-19T10:38:11;10.13;;;2.20;;
23236;SDS011;11787;52.018;8.570;2023-09-19T10:40:38;7.25;;;2.38;;
23236;SDS011;11787;52.018;8.570;2023-09-19T10:43:20;6.05;;;1.95;;
23236;SDS011;11787;52.018;8.570;2023-09-19T10:45:50;7.95;;;2.40;;
23236;SDS011;11787;52.018;8.570;2023-09-19T10:48:17;10.38;;;2.38;;
23236;SDS011;11787;52.018;8.570;2023-09-19T10:51:06;8.43;;;2.57;;
23236;SDS011;11787;52.018;8.570;2023-09-19T10:53:49;8.82;;;2.47;;
23236;SDS011;11787;52.018;8.570;2023-09-19T10:56:19;8.45;;;2.80;;
23236;SDS011;11787;52.018;8.570;2023-09-19T10:58:53;9.48;;;2.63;;
23236;SDS011;11787;52.018;8.570;2023-09-19T11:01:48;10.95;;;2.60;;
23236;SDS011;11787;52.018;8.570;2023-09-19T11:04:34;7.35;;;2.42;;
23236;SDS011;11787;52.018;8.570;2023-09-19T11:12:11;8.82;;;2.38;;
23236;SDS011;11787;52.018;8.570;2023-09-19T11:14:38;8.98;;;3.28;;
23236;SDS011;11787;52.018;8.570;2023-09-19T11:22:52;7.28;;;2.30;;
23236;SDS011;11787;52.018;8.570;2023-09-19T14:23:20;5.10;;;1.80;;
23236;SDS011;11787;52.018;8.570;2023-09-19T20:21:41;4.07;;;1.13;;
23236;SDS011;11787;52.018;8.570;2023-09-19T20:24:06;2.90;;;1.05;;
23236;SDS011;11787;52.018;8.570;2023-09-19T20:26:37;4.75;;;1.15;;
23236;SDS011;11787;52.018;8.570;2023-09-19T20:29:04;3.17;;;1.00;;
23236;SDS011;11787;52.018;8.570;2023-09-19T20:31:30;4.35;;;1.23;;
23236;SDS011;11787;52.018;8.570;2023-09-19T20:33:58;4.13;;;1.00;;
23236;SDS011;11787;52.018;8.570;2023-09-19T20:36:24;5.75;;;1.48;;
23236;SDS011;11787;52.018;8.570;2023-09-19T20:38:51;4.47;;;1.45;;
23236;SDS011;11787;52.018;8.570;2023-09-19T20:41:18;4.03;;;1.33;;
23236;SDS011;11787;52.018;8.570;2023-09-19T20:43:44;3.90;;;1.30;;
23236;SDS011;11787;52.018;8.570;2023-09-19T20:46:09;3.75;;;1.10;;
23236;SDS011;11787;52.018;8.570;2023-09-19T20:48:39;4.25;;;1.33;;
23236;SDS011;11787;52.018;8.570;2023-09-19T20:51:09;4.43;;;1.20;;
23236;SDS011;11787;52.018;8.570;2023-09-19T20:53:38;3.93;;;1.20;;
23236;SDS011;11787;52.018;8.570;2023-09-19T20:56:05;4.95;;;1.17;;
23236;SDS011;11787;52.018;8.570;2023-09-19T20:58:32;5.60;;;1.10;;
23236;SDS011;11787;52.018;8.570;2023-09-19T21:01:00;2.30;;;1.13;;
23236;SDS011;11787;52.018;8.570;2023-09-19T21:03:26;2.22;;;0.95;;
23236;SDS011;11787;52.018;8.570;2023-09-19T21:06:08;4.68;;;1.23;;
23236;SDS011;11787;52.018;8.570;2023-09-19T21:08:39;3.38;;;1.17;;
23236;SDS011;11787;52.018;8.570;2023-09-19T21:11:16;2.72;;;1.27;;
23236;SDS011;11787;52.018;8.570;2023-09-19T21:13:44;5.38;;;1.63;;
23236;SDS011;11787;52.018;8.570;2023-09-19T21:16:11;2.03;;;1.00;;
23236;SDS011;11787;52.018;8.570;2023-09-19T21:18:39;3.85;;;1.30;;
23236;SDS011;11787;52.018;8.570;2023-09-19T21:21:05;3.60;;;1.20;;
23236;SDS011;11787;52.018;8.570;2023-09-19T21:23:32;4.10;;;1.38;;
23236;SDS011;11787;52.018;8.570;2023-09-19T21:25:58;2.97;;;1.40;;
23236;SDS011;11787;52.018;8.570;2023-09-19T21:28:25;3.50;;;1.65;;
23236;SDS011;11787;52.018;8.570;2023-09-19T21:30:58;3.40;;;1.10;;
23236;SDS011;11787;52.018;8.570;2023-09-19T21:33:25;4.03;;;1.05;;
23236;SDS011;11787;52.018;8.570;2023-09-19T21:35:52;4.32;;;1.42;;
23236;SDS011;11787;52.018;8.570;2023-09-19T21:38:18;3.67;;;1.20;;
23236;SDS011;11787;52.018;8.570;2023-09-19T21:40:44;3.42;;;1.42;;
23236;SDS011;11787;52.018;8.570;2023-09-19T21:43:09;4.55;;;1.20;;
23236;SDS011;11787;52.018;8.570;2023-09-19T21:45:35;4.47;;;1.63;;
23236;SDS011;11787;52.018;8.570;2023-09-19T21:48:02;4.57;;;1.65;;
23236;SDS011;11787;52.018;8.570;2023-09-19T21:50:28;3.47;;;1.10;;
23236;SDS011;11787;52.018;8.570;2023-09-19T21:52:55;3.00;;;1.48;;
23236;SDS011;11787;52.018;8.570;2023-09-19T21:55:29;3.97;;;1.30;;
23236;SDS011;11787;52.018;8.570;2023-09-19T21:57:55;3.27;;;1.40;;
23236;SDS011;11787;52.018;8.570;2023-09-19T22:04:51;5.03;;;1.30;;
23236;SDS011;11787;52.018;8.570;2023-09-19T22:07:16;2.70;;;1.10;;
23236;SDS011;11787;52.018;8.570;2023-09-19T22:09:42;4.22;;;1.65;;
23236;SDS011;11787;52.018;8.570;2023-09-19T22:12:07;5.78;;;1.83;;
23236;SDS011;11787;52.018;8.570;2023-09-19T22:14:34;4.13;;;1.48;;
23236;SDS011;11787;52.018;8.570;2023-09-19T22:17:00;2.95;;;1.17;;
23236;SDS011;11787;52.018;8.570;2023-09-19T22:19:26;3.20;;;1.10;;
23236;SDS011;11787;52.018;8.570;2023-09-19T22:21:52;3.83;;;1.35;;
23236;SDS011;11787;52.018;8.570;2023-09-19T22:24:18;4.40;;;1.25;;
23236;SDS011;11787;52.018;8.570;2023-09-19T22:26:45;3.17;;;1.20;;
23236;SDS011;11787;52.018;8.570;2023-09-19T22:29:12;3.80;;;1.42;;
23236;SDS011;11787;52.018;8.570;2023-09-19T22:31:38;2.83;;;1.30;;
23236;SDS011;11787;52.018;8.570;2023-09-19T22:34:07;3.83;;;1.10;;
23236;SDS011;11787;52.018;8.570;2023-09-19T22:36:37;2.45;;;1.10;;
23236;SDS011;11787;52.018;8.570;2023-09-19T22:39:09;4.63;;;1.40;;
23236;SDS011;11787;52.018;8.570;2023-09-19T22:41:46;3.88;;;1.20;;
23236;SDS011;11787;52.018;8.570;2023-09-19T22:44:12;2.50;;;1.17;;
23236;SDS011;11787;52.018;8.570;2023-09-19T22:46:38;5.20;;;1.30;;
23236;SDS011;11787;52.018;8.570;2023-09-19T22:49:04;3.97;;;1.40;;
23236;SDS011;11787;52.018;8.570;2023-09-19T22:51:41;5.25;;;1.60;;
23236;SDS011;11787;52.018;8.570;2023-09-19T22:54:14;2.55;;;1.27;;
23236;SDS011;11787;52.018;8.570;2023-09-19T22:56:42;4.20;;;1.60;;
23236;SDS011;11787;52.018;8.570;2023-09-19T22:59:08;4.38;;;1.40;;
23236;SDS011;11787;52.018;8.570;2023-09-19T23:01:34;3.80;;;1.95;;
23236;SDS011;11787;52.018;8.570;2023-09-19T23:03:59;2.92;;;1.15;;
23236;SDS011;11787;52.018;8.570;2023-09-19T23:06:37;6.30;;;1.30;;
23236;SDS011;11787;52.018;8.570;2023-09-19T23:09:06;2.75;;;1.17;;
23236;SDS011;11787;52.018;8.570;2023-09-19T23:11:42;2.60;;;1.10;;
23236;SDS011;11787;52.018;8.570;2023-09-19T23:14:09;4.78;;;1.83;;
23236;SDS011;11787;52.018;8.570;2023-09-19T23:16:34;4.68;;;1.40;;
23236;SDS011;11787;52.018;8.570;2023-09-19T23:19:01;6.18;;;1.52;;
23236;SDS011;11787;52.018;8.570;2023-09-19T23:21:50;4.63;;;1.17;;
23236;SDS011;11787;52.018;8.570;2023-09-19T23:24:18;6.05;;;1.63;;
23236;SDS011;11787;52.018;8.570;2023-09-19T23:26:44;5.20;;;1.40;;
23236;SDS011;11787;52.018;8.570;2023-09-19T23:29:10;6.20;;;1.75;;
23236;SDS011;11787;52.018;8.570;2023-09-19T23:31:39;4.80;;;1.60;;
23236;SDS011;11787;52.018;8.570;2023-09-19T23:34:08;6.03;;;1.60;;
23236;SDS011;11787;52.018;8.570;2023-09-19T23:36:35;5.50;;;1.70;;
23236;SDS011;11787;52.018;8.570;2023-09-19T23:39:01;4.80;;;1.25;;
23236;SDS011;11787;52.018;8.570;2023-09-19T23:41:27;4.68;;;1.42;;
23236;SDS011;11787;52.018;8.570;2023-09-19T23:43:55;5.75;;;1.52;;
23236;SDS011;11787;52.018;8.570;2023-09-19T23:46:23;6.22;;;1.70;;
23236;SDS011;11787;52.018;8.570;2023-09-19T23:48:51;8.65;;;1.50;;
23236;SDS011;11787;52.018;8.570;2023-09-19T23:51:17;3.45;;;1.40;;
23236;SDS011;11787;52.018;8.570;2023-09-19T23:53:45;7.25;;;1.67;;
23236;SDS011;11787;52.018;8.570;2023-09-19T23:56:10;4.28;;;1.70;;
23236;SDS011;11787;52.018;8.570;2023-09-19T23:58:39;3.15;;;1.20;;
